sensor_id;sensor_type;location;lat;lon;timestamp;P1;durP1;ratioP1;P2;durP2;ratioP2
68653;SDS011;55636;51.108;13.622;2023-11-22T00:00:32;10.23;;;9.03;;
68653;SDS011;55636;51.108;13.622;2023-11-22T00:01:34;11.30;;;9.17;;
68653;SDS011;55636;51.108;13.622;2023-11-22T00:02:37;11.33;;;9.10;;
68653;SDS011;55636;51.108;13.622;2023-11-22T00:03:39;10.77;;;9.20;;
68653;SDS011;55636;51.108;13.622;2023-11-22T00:04:42;10.43;;;9.13;;
68653;SDS011;55636;51.108;13.622;2023-11-22T00:05:44;11.87;;;9.70;;
68653;SDS011;55636;51.108;13.622;2023-11-22T00:06:47;11.43;;;9.27;;
68653;SDS011;55636;51.108;13.622;2023-11-22T00:07:49;10.67;;;9.13;;
68653;SDS011;55636;51.108;13.622;2023-11-22T00:08:51;12.23;;;9.30;;
68653;SDS011;55636;51.108;13.622;2023-11-22T00:09:54;11.87;;;9.50;;
68653;SDS011;55636;51.108;13.622;2023-11-22T00:11:00;11.40;;;9.50;;
68653;SDS011;55636;51.108;13.622;2023-11-22T00:12:03;11.93;;;9.70;;
68653;SDS011;55636;51.108;13.622;2023-11-22T00:13:05;11.20;;;9.40;;
68653;SDS011;55636;51.108;13.622;2023-11-22T00:14:08;11.53;;;9.63;;
68653;SDS011;55636;51.108;13.622;2023-11-22T00:15:10;11.40;;;10.03;;
68653;SDS011;55636;51.108;13.622;2023-11-22T00:16:14;10.83;;;9.20;;
68653;SDS011;55636;51.108;13.622;2023-11-22T00:17:18;12.10;;;9.83;;
68653;SDS011;55636;51.108;13.622;2023-11-22T00:18:21;10.83;;;9.20;;
68653;SDS011;55636;51.108;13.622;2023-11-22T00:19:25;11.00;;;9.43;;
68653;SDS011;55636;51.108;13.622;2023-11-22T00:20:27;11.77;;;9.60;;
68653;SDS011;55636;51.108;13.622;2023-11-22T00:21:29;10.40;;;9.30;;
68653;SDS011;55636;51.108;13.622;2023-11-22T00:22:32;12.13;;;9.90;;
68653;SDS011;55636;51.108;13.622;2023-11-22T00:23:36;11.23;;;9.37;;
68653;SDS011;55636;51.108;13.622;2023-11-22T00:24:39;10.40;;;9.30;;
68653;SDS011;55636;51.108;13.622;2023-11-22T00:25:42;11.33;;;9.93;;
68653;SDS011;55636;51.108;13.622;2023-11-22T00:26:44;11.53;;;9.80;;
68653;SDS011;55636;51.108;13.622;2023-11-22T00:27:47;11.73;;;9.33;;
68653;SDS011;55636;51.108;13.622;2023-11-22T00:28:49;11.03;;;9.60;;
68653;SDS011;55636;51.108;13.622;2023-11-22T00:29:51;12.10;;;9.50;;
68653;SDS011;55636;51.108;13.622;2023-11-22T00:30:54;9.70;;;8.70;;
68653;SDS011;55636;51.108;13.622;2023-11-22T00:31:57;11.57;;;9.70;;
68653;SDS011;55636;51.108;13.622;2023-11-22T00:33:00;12.23;;;9.43;;
68653;SDS011;55636;51.108;13.622;2023-11-22T00:34:03;10.60;;;8.83;;
68653;SDS011;55636;51.108;13.622;2023-11-22T00:35:06;11.30;;;9.40;;
68653;SDS011;55636;51.108;13.622;2023-11-22T00:36:10;11.07;;;9.70;;
68653;SDS011;55636;51.108;13.622;2023-11-22T00:37:13;12.03;;;9.03;;
68653;SDS011;55636;51.108;13.622;2023-11-22T00:38:15;11.23;;;9.13;;
68653;SDS011;55636;51.108;13.622;2023-11-22T00:39:18;10.70;;;9.03;;
68653;SDS011;55636;51.108;13.622;2023-11-22T00:40:21;11.27;;;9.60;;
68653;SDS011;55636;51.108;13.622;2023-11-22T00:41:23;10.97;;;9.20;;
68653;SDS011;55636;51.108;13.622;2023-11-22T00:42:26;10.57;;;9.10;;
68653;SDS011;55636;51.108;13.622;2023-11-22T00:43:29;11.53;;;9.53;;
68653;SDS011;55636;51.108;13.622;2023-11-22T00:44:31;10.37;;;9.20;;
68653;SDS011;55636;51.108;13.622;2023-11-22T00:45:34;11.47;;;9.17;;
68653;SDS011;55636;51.108;13.622;2023-11-22T00:46:38;12.00;;;9.60;;
68653;SDS011;55636;51.108;13.622;2023-11-22T00:47:41;11.10;;;9.33;;
68653;SDS011;55636;51.108;13.622;2023-11-22T00:48:44;12.27;;;9.83;;
68653;SDS011;55636;51.108;13.622;2023-11-22T00:49:47;11.07;;;9.17;;
68653;SDS011;55636;51.108;13.622;2023-11-22T00:50:49;10.27;;;8.60;;
68653;SDS011;55636;51.108;13.622;2023-11-22T00:51:53;11.57;;;9.13;;
68653;SDS011;55636;51.108;13.622;2023-11-22T00:52:55;10.33;;;9.00;;
68653;SDS011;55636;51.108;13.622;2023-11-22T00:53:58;10.40;;;9.10;;
68653;SDS011;55636;51.108;13.622;2023-11-22T00:55:00;11.80;;;9.83;;
68653;SDS011;55636;51.108;13.622;2023-11-22T00:56:03;10.80;;;9.50;;
68653;SDS011;55636;51.108;13.622;2023-11-22T00:57:08;11.63;;;9.63;;
68653;SDS011;55636;51.108;13.622;2023-11-22T00:58:11;11.00;;;9.80;;
68653;SDS011;55636;51.108;13.622;2023-11-22T00:59:15;11.57;;;9.27;;
68653;SDS011;55636;51.108;13.622;2023-11-22T01:00:17;11.50;;;9.50;;
68653;SDS011;55636;51.108;13.622;2023-11-22T01:01:20;11.53;;;9.43;;
68653;SDS011;55636;51.108;13.622;2023-11-22T01:02:22;10.93;;;9.27;;
68653;SDS011;55636;51.108;13.622;2023-11-22T01:03:25;12.10;;;9.63;;
68653;SDS011;55636;51.108;13.622;2023-11-22T01:04:28;11.03;;;9.17;;
68653;SDS011;55636;51.108;13.622;2023-11-22T01:05:31;11.03;;;9.47;;
68653;SDS011;55636;51.108;13.622;2023-11-22T01:06:34;11.43;;;9.37;;
68653;SDS011;55636;51.108;13.622;2023-11-22T01:07:39;13.13;;;9.03;;
68653;SDS011;55636;51.108;13.622;2023-11-22T01:08:42;11.53;;;9.73;;
68653;SDS011;55636;51.108;13.622;2023-11-22T01:09:44;10.13;;;9.03;;
68653;SDS011;55636;51.108;13.622;2023-11-22T01:10:47;10.33;;;9.07;;
68653;SDS011;55636;51.108;13.622;2023-11-22T01:11:49;11.17;;;9.50;;
68653;SDS011;55636;51.108;13.622;2023-11-22T01:12:52;11.27;;;9.23;;
68653;SDS011;55636;51.108;13.622;2023-11-22T01:13:55;12.50;;;9.50;;
68653;SDS011;55636;51.108;13.622;2023-11-22T01:14:58;11.53;;;9.53;;
68653;SDS011;55636;51.108;13.622;2023-11-22T01:16:01;10.93;;;9.03;;
68653;SDS011;55636;51.108;13.622;2023-11-22T01:17:03;11.90;;;9.90;;
68653;SDS011;55636;51.108;13.622;2023-11-22T01:18:06;10.87;;;9.27;;
68653;SDS011;55636;51.108;13.622;2023-11-22T01:19:09;10.77;;;9.10;;
68653;SDS011;55636;51.108;13.622;2023-11-22T01:20:11;11.97;;;9.67;;
68653;SDS011;55636;51.108;13.622;2023-11-22T01:21:14;12.10;;;9.70;;
68653;SDS011;55636;51.108;13.622;2023-11-22T01:22:16;12.43;;;9.73;;
68653;SDS011;55636;51.108;13.622;2023-11-22T01:23:19;12.63;;;9.83;;
68653;SDS011;55636;51.108;13.622;2023-11-22T01:24:22;11.07;;;9.20;;
68653;SDS011;55636;51.108;13.622;2023-11-22T01:25:24;10.90;;;9.33;;
68653;SDS011;55636;51.108;13.622;2023-11-22T01:26:26;10.53;;;8.90;;
68653;SDS011;55636;51.108;13.622;2023-11-22T01:27:29;11.57;;;9.43;;
68653;SDS011;55636;51.108;13.622;2023-11-22T01:28:31;11.10;;;9.13;;
68653;SDS011;55636;51.108;13.622;2023-11-22T01:29:36;11.87;;;9.40;;
68653;SDS011;55636;51.108;13.622;2023-11-22T01:30:38;11.83;;;9.47;;
68653;SDS011;55636;51.108;13.622;2023-11-22T01:31:41;12.00;;;9.30;;
68653;SDS011;55636;51.108;13.622;2023-11-22T01:32:44;11.70;;;10.03;;
68653;SDS011;55636;51.108;13.622;2023-11-22T01:33:47;13.03;;;9.87;;
68653;SDS011;55636;51.108;13.622;2023-11-22T01:34:50;11.53;;;9.90;;
68653;SDS011;55636;51.108;13.622;2023-11-22T01:35:53;11.23;;;9.33;;
68653;SDS011;55636;51.108;13.622;2023-11-22T01:36:57;11.47;;;9.43;;
68653;SDS011;55636;51.108;13.622;2023-11-22T01:37:59;12.83;;;9.80;;
68653;SDS011;55636;51.108;13.622;2023-11-22T01:39:01;12.73;;;9.60;;
68653;SDS011;55636;51.108;13.622;2023-11-22T01:40:05;12.70;;;10.37;;
68653;SDS011;55636;51.108;13.622;2023-11-22T01:41:10;12.50;;;10.27;;
68653;SDS011;55636;51.108;13.622;2023-11-22T01:42:15;12.27;;;9.47;;
68653;SDS011;55636;51.108;13.622;2023-11-22T01:43:18;11.63;;;9.77;;
68653;SDS011;55636;51.108;13.622;2023-11-22T01:44:23;11.30;;;9.97;;
68653;SDS011;55636;51.108;13.622;2023-11-22T01:45:26;10.70;;;9.57;;
68653;SDS011;55636;51.108;13.622;2023-11-22T01:46:28;11.87;;;9.57;;
68653;SDS011;55636;51.108;13.622;2023-11-22T01:47:31;11.60;;;9.30;;
68653;SDS011;55636;51.108;13.622;2023-11-22T01:48:34;11.27;;;9.10;;
68653;SDS011;55636;51.108;13.622;2023-11-22T01:49:38;12.07;;;9.83;;
68653;SDS011;55636;51.108;13.622;2023-11-22T01:50:40;14.47;;;9.87;;
68653;SDS011;55636;51.108;13.622;2023-11-22T01:51:44;12.37;;;10.10;;
68653;SDS011;55636;51.108;13.622;2023-11-22T01:52:47;13.07;;;10.40;;
68653;SDS011;55636;51.108;13.622;2023-11-22T01:53:51;13.10;;;10.33;;
68653;SDS011;55636;51.108;13.622;2023-11-22T01:54:58;13.33;;;10.37;;
68653;SDS011;55636;51.108;13.622;2023-11-22T01:56:01;12.47;;;10.00;;
68653;SDS011;55636;51.108;13.622;2023-11-22T01:57:04;11.67;;;9.60;;
68653;SDS011;55636;51.108;13.622;2023-11-22T01:58:10;12.03;;;9.73;;
68653;SDS011;55636;51.108;13.622;2023-11-22T01:59:14;11.67;;;9.67;;
68653;SDS011;55636;51.108;13.622;2023-11-22T02:00:17;11.23;;;9.70;;
68653;SDS011;55636;51.108;13.622;2023-11-22T02:01:24;11.57;;;9.43;;
68653;SDS011;55636;51.108;13.622;2023-11-22T02:02:28;11.93;;;9.63;;
68653;SDS011;55636;51.108;13.622;2023-11-22T02:03:31;11.70;;;9.47;;
68653;SDS011;55636;51.108;13.622;2023-11-22T02:04:34;11.13;;;9.17;;
68653;SDS011;55636;51.108;13.622;2023-11-22T02:05:44;11.77;;;9.50;;
68653;SDS011;55636;51.108;13.622;2023-11-22T02:06:47;11.07;;;9.33;;
68653;SDS011;55636;51.108;13.622;2023-11-22T02:07:50;11.37;;;9.10;;
68653;SDS011;55636;51.108;13.622;2023-11-22T02:08:53;12.00;;;9.77;;
68653;SDS011;55636;51.108;13.622;2023-11-22T02:09:55;11.23;;;9.37;;
68653;SDS011;55636;51.108;13.622;2023-11-22T02:10:58;11.40;;;9.57;;
68653;SDS011;55636;51.108;13.622;2023-11-22T02:12:04;10.87;;;8.80;;
68653;SDS011;55636;51.108;13.622;2023-11-22T02:13:07;10.97;;;9.50;;
68653;SDS011;55636;51.108;13.622;2023-11-22T02:14:10;12.37;;;9.47;;
68653;SDS011;55636;51.108;13.622;2023-11-22T02:15:12;11.17;;;9.70;;
68653;SDS011;55636;51.108;13.622;2023-11-22T02:16:15;11.10;;;8.87;;
68653;SDS011;55636;51.108;13.622;2023-11-22T02:17:19;11.20;;;9.63;;
68653;SDS011;55636;51.108;13.622;2023-11-22T02:18:22;12.67;;;10.00;;
68653;SDS011;55636;51.108;13.622;2023-11-22T02:19:25;12.73;;;10.07;;
68653;SDS011;55636;51.108;13.622;2023-11-22T02:20:28;12.00;;;9.50;;
68653;SDS011;55636;51.108;13.622;2023-11-22T02:21:30;11.33;;;9.93;;
68653;SDS011;55636;51.108;13.622;2023-11-22T02:22:33;11.67;;;9.27;;
68653;SDS011;55636;51.108;13.622;2023-11-22T02:23:35;11.17;;;9.20;;
68653;SDS011;55636;51.108;13.622;2023-11-22T02:24:38;11.20;;;9.67;;
68653;SDS011;55636;51.108;13.622;2023-11-22T02:25:40;11.73;;;9.27;;
68653;SDS011;55636;51.108;13.622;2023-11-22T02:26:43;11.20;;;9.37;;
68653;SDS011;55636;51.108;13.622;2023-11-22T02:27:48;11.17;;;9.20;;
68653;SDS011;55636;51.108;13.622;2023-11-22T02:28:51;13.07;;;9.67;;
68653;SDS011;55636;51.108;13.622;2023-11-22T02:29:53;11.70;;;9.77;;
68653;SDS011;55636;51.108;13.622;2023-11-22T02:30:56;11.57;;;9.17;;
68653;SDS011;55636;51.108;13.622;2023-11-22T02:31:59;11.63;;;9.70;;
68653;SDS011;55636;51.108;13.622;2023-11-22T02:33:01;11.43;;;9.00;;
68653;SDS011;55636;51.108;13.622;2023-11-22T02:34:04;11.30;;;9.27;;
68653;SDS011;55636;51.108;13.622;2023-11-22T02:35:07;10.87;;;9.33;;
68653;SDS011;55636;51.108;13.622;2023-11-22T02:36:10;11.70;;;9.10;;
68653;SDS011;55636;51.108;13.622;2023-11-22T02:37:14;11.10;;;9.43;;
68653;SDS011;55636;51.108;13.622;2023-11-22T02:38:17;11.70;;;9.60;;
68653;SDS011;55636;51.108;13.622;2023-11-22T02:39:24;10.30;;;9.23;;
68653;SDS011;55636;51.108;13.622;2023-11-22T02:40:35;11.57;;;9.50;;
68653;SDS011;55636;51.108;13.622;2023-11-22T02:41:38;11.00;;;9.17;;
68653;SDS011;55636;51.108;13.622;2023-11-22T02:42:40;11.77;;;9.47;;
68653;SDS011;55636;51.108;13.622;2023-11-22T02:43:42;10.47;;;8.77;;
68653;SDS011;55636;51.108;13.622;2023-11-22T02:44:45;10.57;;;9.10;;
68653;SDS011;55636;51.108;13.622;2023-11-22T02:45:47;10.97;;;9.13;;
68653;SDS011;55636;51.108;13.622;2023-11-22T02:46:50;11.30;;;9.60;;
68653;SDS011;55636;51.108;13.622;2023-11-22T02:47:52;12.03;;;9.30;;
68653;SDS011;55636;51.108;13.622;2023-11-22T02:48:55;10.47;;;9.33;;
68653;SDS011;55636;51.108;13.622;2023-11-22T02:49:57;10.97;;;9.43;;
68653;SDS011;55636;51.108;13.622;2023-11-22T02:51:00;12.73;;;9.73;;
68653;SDS011;55636;51.108;13.622;2023-11-22T02:52:02;11.03;;;8.87;;
68653;SDS011;55636;51.108;13.622;2023-11-22T02:53:05;10.37;;;9.00;;
68653;SDS011;55636;51.108;13.622;2023-11-22T02:54:07;11.47;;;9.50;;
68653;SDS011;55636;51.108;13.622;2023-11-22T02:55:10;10.37;;;9.03;;
68653;SDS011;55636;51.108;13.622;2023-11-22T02:56:12;10.53;;;9.33;;
68653;SDS011;55636;51.108;13.622;2023-11-22T02:57:15;11.13;;;8.77;;
68653;SDS011;55636;51.108;13.622;2023-11-22T02:58:17;10.80;;;9.07;;
68653;SDS011;55636;51.108;13.622;2023-11-22T02:59:20;11.03;;;8.60;;
68653;SDS011;55636;51.108;13.622;2023-11-22T03:00:23;11.23;;;8.63;;
68653;SDS011;55636;51.108;13.622;2023-11-22T03:01:27;9.77;;;8.77;;
68653;SDS011;55636;51.108;13.622;2023-11-22T03:02:29;11.83;;;9.30;;
68653;SDS011;55636;51.108;13.622;2023-11-22T03:03:34;10.77;;;9.10;;
68653;SDS011;55636;51.108;13.622;2023-11-22T03:04:38;11.00;;;9.20;;
68653;SDS011;55636;51.108;13.622;2023-11-22T03:05:41;11.33;;;9.00;;
68653;SDS011;55636;51.108;13.622;2023-11-22T03:06:43;10.87;;;9.13;;
68653;SDS011;55636;51.108;13.622;2023-11-22T03:07:46;10.57;;;8.97;;
68653;SDS011;55636;51.108;13.622;2023-11-22T03:08:48;12.23;;;9.63;;
68653;SDS011;55636;51.108;13.622;2023-11-22T03:09:51;9.87;;;8.80;;
68653;SDS011;55636;51.108;13.622;2023-11-22T03:11:07;10.37;;;8.83;;
68653;SDS011;55636;51.108;13.622;2023-11-22T03:12:09;12.30;;;9.57;;
68653;SDS011;55636;51.108;13.622;2023-11-22T03:13:12;11.80;;;9.60;;
68653;SDS011;55636;51.108;13.622;2023-11-22T03:14:14;10.10;;;8.23;;
68653;SDS011;55636;51.108;13.622;2023-11-22T03:15:30;11.40;;;8.90;;
68653;SDS011;55636;51.108;13.622;2023-11-22T03:16:33;11.23;;;8.97;;
68653;SDS011;55636;51.108;13.622;2023-11-22T03:17:35;10.53;;;8.93;;
68653;SDS011;55636;51.108;13.622;2023-11-22T03:18:41;10.47;;;8.93;;
68653;SDS011;55636;51.108;13.622;2023-11-22T03:19:43;11.57;;;9.33;;
68653;SDS011;55636;51.108;13.622;2023-11-22T03:20:48;11.13;;;9.13;;
68653;SDS011;55636;51.108;13.622;2023-11-22T03:21:56;9.97;;;8.93;;
68653;SDS011;55636;51.108;13.622;2023-11-22T03:22:59;13.43;;;10.03;;
68653;SDS011;55636;51.108;13.622;2023-11-22T03:24:03;10.83;;;9.40;;
68653;SDS011;55636;51.108;13.622;2023-11-22T03:25:05;11.40;;;8.83;;
68653;SDS011;55636;51.108;13.622;2023-11-22T03:26:12;12.13;;;9.80;;
68653;SDS011;55636;51.108;13.622;2023-11-22T03:27:15;11.70;;;9.47;;
68653;SDS011;55636;51.108;13.622;2023-11-22T03:28:20;11.63;;;9.97;;
68653;SDS011;55636;51.108;13.622;2023-11-22T03:29:25;11.23;;;8.93;;
68653;SDS011;55636;51.108;13.622;2023-11-22T03:30:29;13.87;;;9.93;;
68653;SDS011;55636;51.108;13.622;2023-11-22T03:31:31;12.40;;;10.00;;
68653;SDS011;55636;51.108;13.622;2023-11-22T03:32:33;11.50;;;9.40;;
68653;SDS011;55636;51.108;13.622;2023-11-22T03:33:40;13.87;;;10.47;;
68653;SDS011;55636;51.108;13.622;2023-11-22T03:34:42;12.67;;;10.03;;
68653;SDS011;55636;51.108;13.622;2023-11-22T03:35:47;12.50;;;9.80;;
68653;SDS011;55636;51.108;13.622;2023-11-22T03:36:50;11.97;;;9.43;;
68653;SDS011;55636;51.108;13.622;2023-11-22T03:37:54;12.50;;;9.37;;
68653;SDS011;55636;51.108;13.622;2023-11-22T03:38:56;12.43;;;9.83;;
68653;SDS011;55636;51.108;13.622;2023-11-22T03:40:00;12.00;;;9.70;;
68653;SDS011;55636;51.108;13.622;2023-11-22T03:41:04;11.93;;;9.77;;
68653;SDS011;55636;51.108;13.622;2023-11-22T03:42:07;11.27;;;9.50;;
68653;SDS011;55636;51.108;13.622;2023-11-22T03:43:11;12.33;;;9.50;;
68653;SDS011;55636;51.108;13.622;2023-11-22T03:44:15;11.67;;;9.07;;
68653;SDS011;55636;51.108;13.622;2023-11-22T03:45:17;11.97;;;9.97;;
68653;SDS011;55636;51.108;13.622;2023-11-22T03:46:19;12.30;;;9.60;;
68653;SDS011;55636;51.108;13.622;2023-11-22T03:47:22;11.23;;;9.73;;
68653;SDS011;55636;51.108;13.622;2023-11-22T03:48:25;12.37;;;8.83;;
68653;SDS011;55636;51.108;13.622;2023-11-22T03:49:28;12.13;;;9.70;;
68653;SDS011;55636;51.108;13.622;2023-11-22T03:50:30;10.67;;;9.43;;
68653;SDS011;55636;51.108;13.622;2023-11-22T03:51:33;12.37;;;10.00;;
68653;SDS011;55636;51.108;13.622;2023-11-22T03:52:36;10.37;;;9.23;;
68653;SDS011;55636;51.108;13.622;2023-11-22T03:53:39;12.50;;;9.77;;
68653;SDS011;55636;51.108;13.622;2023-11-22T03:54:41;9.97;;;8.63;;
68653;SDS011;55636;51.108;13.622;2023-11-22T03:55:43;12.27;;;9.97;;
68653;SDS011;55636;51.108;13.622;2023-11-22T03:56:46;11.33;;;9.53;;
68653;SDS011;55636;51.108;13.622;2023-11-22T03:57:48;11.47;;;9.67;;
68653;SDS011;55636;51.108;13.622;2023-11-22T03:58:54;12.47;;;10.17;;
68653;SDS011;55636;51.108;13.622;2023-11-22T03:59:56;11.30;;;9.90;;
68653;SDS011;55636;51.108;13.622;2023-11-22T04:00:59;11.87;;;9.93;;
68653;SDS011;55636;51.108;13.622;2023-11-22T04:02:05;11.83;;;10.23;;
68653;SDS011;55636;51.108;13.622;2023-11-22T04:03:07;11.97;;;9.87;;
68653;SDS011;55636;51.108;13.622;2023-11-22T04:04:10;14.13;;;9.57;;
68653;SDS011;55636;51.108;13.622;2023-11-22T04:05:12;10.70;;;8.77;;
68653;SDS011;55636;51.108;13.622;2023-11-22T04:06:15;11.30;;;9.60;;
68653;SDS011;55636;51.108;13.622;2023-11-22T04:07:18;11.93;;;9.97;;
68653;SDS011;55636;51.108;13.622;2023-11-22T04:08:21;12.03;;;9.77;;
68653;SDS011;55636;51.108;13.622;2023-11-22T04:09:23;10.50;;;9.33;;
68653;SDS011;55636;51.108;13.622;2023-11-22T04:10:26;11.23;;;9.20;;
68653;SDS011;55636;51.108;13.622;2023-11-22T04:11:28;12.73;;;10.37;;
68653;SDS011;55636;51.108;13.622;2023-11-22T04:12:31;11.67;;;9.60;;
68653;SDS011;55636;51.108;13.622;2023-11-22T04:13:37;10.90;;;9.33;;
68653;SDS011;55636;51.108;13.622;2023-11-22T04:14:40;11.43;;;9.57;;
68653;SDS011;55636;51.108;13.622;2023-11-22T04:15:43;13.10;;;10.20;;
68653;SDS011;55636;51.108;13.622;2023-11-22T04:16:47;12.03;;;10.00;;
68653;SDS011;55636;51.108;13.622;2023-11-22T04:17:50;12.03;;;9.70;;
68653;SDS011;55636;51.108;13.622;2023-11-22T04:18:53;11.20;;;9.93;;
68653;SDS011;55636;51.108;13.622;2023-11-22T04:19:56;13.80;;;10.27;;
68653;SDS011;55636;51.108;13.622;2023-11-22T04:20:58;12.83;;;10.07;;
68653;SDS011;55636;51.108;13.622;2023-11-22T04:22:03;12.53;;;10.10;;
68653;SDS011;55636;51.108;13.622;2023-11-22T04:23:05;12.43;;;10.60;;
68653;SDS011;55636;51.108;13.622;2023-11-22T04:24:08;11.77;;;10.13;;
68653;SDS011;55636;51.108;13.622;2023-11-22T04:25:11;12.80;;;10.73;;
68653;SDS011;55636;51.108;13.622;2023-11-22T04:26:16;12.73;;;9.90;;
68653;SDS011;55636;51.108;13.622;2023-11-22T04:27:19;12.73;;;10.33;;
68653;SDS011;55636;51.108;13.622;2023-11-22T04:28:22;14.07;;;11.30;;
68653;SDS011;55636;51.108;13.622;2023-11-22T04:29:24;12.63;;;10.73;;
68653;SDS011;55636;51.108;13.622;2023-11-22T04:30:27;12.47;;;10.93;;
68653;SDS011;55636;51.108;13.622;2023-11-22T04:31:30;12.23;;;10.20;;
68653;SDS011;55636;51.108;13.622;2023-11-22T04:32:32;12.67;;;10.47;;
68653;SDS011;55636;51.108;13.622;2023-11-22T04:33:35;13.47;;;10.53;;
68653;SDS011;55636;51.108;13.622;2023-11-22T04:34:38;13.20;;;11.13;;
68653;SDS011;55636;51.108;13.622;2023-11-22T04:35:40;12.07;;;10.30;;
68653;SDS011;55636;51.108;13.622;2023-11-22T04:36:43;12.90;;;10.67;;
68653;SDS011;55636;51.108;13.622;2023-11-22T04:37:48;11.70;;;10.20;;
68653;SDS011;55636;51.108;13.622;2023-11-22T04:38:51;11.70;;;9.70;;
68653;SDS011;55636;51.108;13.622;2023-11-22T04:39:54;12.60;;;10.10;;
68653;SDS011;55636;51.108;13.622;2023-11-22T04:40:57;12.63;;;10.43;;
68653;SDS011;55636;51.108;13.622;2023-11-22T04:41:59;12.77;;;9.90;;
68653;SDS011;55636;51.108;13.622;2023-11-22T04:43:01;11.47;;;9.80;;
68653;SDS011;55636;51.108;13.622;2023-11-22T04:44:04;12.50;;;10.17;;
68653;SDS011;55636;51.108;13.622;2023-11-22T04:45:07;11.53;;;9.43;;
68653;SDS011;55636;51.108;13.622;2023-11-22T04:46:10;12.17;;;10.30;;
68653;SDS011;55636;51.108;13.622;2023-11-22T04:47:12;12.00;;;9.90;;
68653;SDS011;55636;51.108;13.622;2023-11-22T04:48:15;11.43;;;9.63;;
68653;SDS011;55636;51.108;13.622;2023-11-22T04:49:17;12.53;;;9.97;;
68653;SDS011;55636;51.108;13.622;2023-11-22T04:50:20;12.07;;;9.90;;
68653;SDS011;55636;51.108;13.622;2023-11-22T04:51:22;11.23;;;9.70;;
68653;SDS011;55636;51.108;13.622;2023-11-22T04:52:26;11.10;;;9.77;;
68653;SDS011;55636;51.108;13.622;2023-11-22T04:53:31;13.90;;;10.10;;
68653;SDS011;55636;51.108;13.622;2023-11-22T04:54:34;11.57;;;10.03;;
68653;SDS011;55636;51.108;13.622;2023-11-22T04:55:37;12.13;;;9.97;;
68653;SDS011;55636;51.108;13.622;2023-11-22T04:56:39;12.23;;;10.73;;
68653;SDS011;55636;51.108;13.622;2023-11-22T04:57:42;12.87;;;10.43;;
68653;SDS011;55636;51.108;13.622;2023-11-22T04:58:44;11.77;;;9.70;;
68653;SDS011;55636;51.108;13.622;2023-11-22T04:59:47;12.17;;;10.17;;
68653;SDS011;55636;51.108;13.622;2023-11-22T05:00:49;11.27;;;10.00;;
68653;SDS011;55636;51.108;13.622;2023-11-22T05:01:52;10.87;;;9.53;;
68653;SDS011;55636;51.108;13.622;2023-11-22T05:02:55;13.23;;;10.17;;
68653;SDS011;55636;51.108;13.622;2023-11-22T05:03:58;11.33;;;10.13;;
68653;SDS011;55636;51.108;13.622;2023-11-22T05:05:03;11.33;;;10.03;;
68653;SDS011;55636;51.108;13.622;2023-11-22T05:06:06;13.87;;;10.60;;
68653;SDS011;55636;51.108;13.622;2023-11-22T05:07:09;11.70;;;10.10;;
68653;SDS011;55636;51.108;13.622;2023-11-22T05:08:11;13.03;;;10.60;;
68653;SDS011;55636;51.108;13.622;2023-11-22T05:09:16;12.23;;;10.10;;
68653;SDS011;55636;51.108;13.622;2023-11-22T05:10:20;11.57;;;9.97;;
68653;SDS011;55636;51.108;13.622;2023-11-22T05:11:22;12.23;;;10.47;;
68653;SDS011;55636;51.108;13.622;2023-11-22T05:12:25;12.67;;;10.30;;
68653;SDS011;55636;51.108;13.622;2023-11-22T05:13:29;13.50;;;10.83;;
68653;SDS011;55636;51.108;13.622;2023-11-22T05:14:31;12.10;;;10.00;;
68653;SDS011;55636;51.108;13.622;2023-11-22T05:15:34;11.63;;;10.10;;
68653;SDS011;55636;51.108;13.622;2023-11-22T05:16:36;13.33;;;10.43;;
68653;SDS011;55636;51.108;13.622;2023-11-22T05:17:39;13.33;;;10.60;;
68653;SDS011;55636;51.108;13.622;2023-11-22T05:18:42;12.13;;;10.40;;
68653;SDS011;55636;51.108;13.622;2023-11-22T05:19:45;12.67;;;10.60;;
68653;SDS011;55636;51.108;13.622;2023-11-22T05:20:47;13.07;;;10.73;;
68653;SDS011;55636;51.108;13.622;2023-11-22T05:21:52;13.37;;;10.90;;
68653;SDS011;55636;51.108;13.622;2023-11-22T05:22:54;13.23;;;11.00;;
68653;SDS011;55636;51.108;13.622;2023-11-22T05:23:56;12.93;;;10.90;;
68653;SDS011;55636;51.108;13.622;2023-11-22T05:24:59;12.53;;;10.60;;
68653;SDS011;55636;51.108;13.622;2023-11-22T05:26:02;13.70;;;11.10;;
68653;SDS011;55636;51.108;13.622;2023-11-22T05:27:07;12.37;;;10.83;;
68653;SDS011;55636;51.108;13.622;2023-11-22T05:28:09;13.33;;;11.00;;
68653;SDS011;55636;51.108;13.622;2023-11-22T05:29:12;12.83;;;10.97;;
68653;SDS011;55636;51.108;13.622;2023-11-22T05:30:14;14.97;;;11.13;;
68653;SDS011;55636;51.108;13.622;2023-11-22T05:31:17;12.47;;;10.60;;
68653;SDS011;55636;51.108;13.622;2023-11-22T05:32:20;12.43;;;11.07;;
68653;SDS011;55636;51.108;13.622;2023-11-22T05:33:22;14.27;;;11.43;;
68653;SDS011;55636;51.108;13.622;2023-11-22T05:34:26;12.87;;;10.90;;
68653;SDS011;55636;51.108;13.622;2023-11-22T05:35:28;13.00;;;10.90;;
68653;SDS011;55636;51.108;13.622;2023-11-22T05:36:31;14.27;;;11.13;;
68653;SDS011;55636;51.108;13.622;2023-11-22T05:37:34;12.97;;;10.97;;
68653;SDS011;55636;51.108;13.622;2023-11-22T05:38:36;12.77;;;11.30;;
68653;SDS011;55636;51.108;13.622;2023-11-22T05:39:40;14.60;;;11.20;;
68653;SDS011;55636;51.108;13.622;2023-11-22T05:40:42;13.10;;;11.50;;
68653;SDS011;55636;51.108;13.622;2023-11-22T05:41:45;13.73;;;11.30;;
68653;SDS011;55636;51.108;13.622;2023-11-22T05:42:47;16.23;;;11.50;;
68653;SDS011;55636;51.108;13.622;2023-11-22T05:43:50;14.07;;;11.60;;
68653;SDS011;55636;51.108;13.622;2023-11-22T05:44:52;12.77;;;10.80;;
68653;SDS011;55636;51.108;13.622;2023-11-22T05:45:54;13.77;;;11.23;;
68653;SDS011;55636;51.108;13.622;2023-11-22T05:46:57;13.60;;;11.80;;
68653;SDS011;55636;51.108;13.622;2023-11-22T05:48:00;13.97;;;11.10;;
68653;SDS011;55636;51.108;13.622;2023-11-22T05:49:03;13.33;;;11.50;;
68653;SDS011;55636;51.108;13.622;2023-11-22T05:50:06;13.70;;;11.43;;
68653;SDS011;55636;51.108;13.622;2023-11-22T05:51:09;13.87;;;11.63;;
68653;SDS011;55636;51.108;13.622;2023-11-22T05:52:12;13.43;;;11.33;;
68653;SDS011;55636;51.108;13.622;2023-11-22T05:53:15;14.03;;;11.07;;
68653;SDS011;55636;51.108;13.622;2023-11-22T05:54:21;15.27;;;11.20;;
68653;SDS011;55636;51.108;13.622;2023-11-22T05:55:24;13.03;;;11.10;;
68653;SDS011;55636;51.108;13.622;2023-11-22T05:56:26;14.17;;;11.53;;
68653;SDS011;55636;51.108;13.622;2023-11-22T05:57:29;14.23;;;11.40;;
68653;SDS011;55636;51.108;13.622;2023-11-22T05:58:32;13.60;;;11.47;;
68653;SDS011;55636;51.108;13.622;2023-11-22T05:59:36;13.70;;;11.00;;
68653;SDS011;55636;51.108;13.622;2023-11-22T06:00:38;14.10;;;11.10;;
68653;SDS011;55636;51.108;13.622;2023-11-22T06:01:40;14.53;;;11.60;;
68653;SDS011;55636;51.108;13.622;2023-11-22T06:02:43;13.90;;;11.73;;
68653;SDS011;55636;51.108;13.622;2023-11-22T06:03:46;14.87;;;11.30;;
68653;SDS011;55636;51.108;13.622;2023-11-22T06:04:48;13.73;;;11.50;;
68653;SDS011;55636;51.108;13.622;2023-11-22T06:05:51;14.67;;;11.83;;
68653;SDS011;55636;51.108;13.622;2023-11-22T06:06:53;15.50;;;11.40;;
68653;SDS011;55636;51.108;13.622;2023-11-22T06:07:55;13.40;;;11.77;;